createdAt,value
2024-03-07T00:01:22.968Z,8.40
2024-03-07T00:03:51.312Z,8.40
2024-03-07T00:06:18.638Z,8.40
2024-03-07T00:08:45.558Z,8.40
2024-03-07T00:11:12.485Z,8.40
2024-03-07T00:13:39.475Z,8.50
2024-03-07T00:16:06.499Z,8.50
2024-03-07T00:18:33.689Z,8.50
2024-03-07T00:21:00.586Z,8.40
2024-03-07T00:23:28.067Z,8.40
2024-03-07T00:25:55.024Z,8.40
2024-03-07T00:28:22.086Z,8.30
2024-03-07T00:30:48.973Z,8.30
2024-03-07T00:33:16.291Z,8.20
2024-03-07T00:35:45.889Z,8.20
2024-03-07T00:38:12.868Z,8.30
2024-03-07T00:40:39.770Z,8.30
2024-03-07T00:43:07.528Z,8.20
2024-03-07T00:45:34.400Z,8.20
2024-03-07T00:48:02.676Z,8.30
2024-03-07T00:50:29.685Z,8.30
2024-03-07T00:52:56.531Z,8.30
2024-03-07T00:55:23.684Z,8.30
2024-03-07T00:57:50.565Z,8.40
2024-03-07T01:00:21.315Z,8.40
2024-03-07T01:02:48.458Z,8.40
2024-03-07T01:05:15.606Z,8.30
2024-03-07T01:07:44.031Z,8.30
2024-03-07T01:10:11.161Z,8.30
2024-03-07T01:12:38.067Z,8.30
2024-03-07T01:15:05.454Z,8.30
2024-03-07T01:17:33.484Z,8.30
2024-03-07T01:20:00.390Z,8.30
2024-03-07T01:22:27.205Z,8.20
2024-03-07T01:24:54.000Z,8.20
2024-03-07T01:27:20.868Z,8.20
2024-03-07T01:29:47.735Z,8.20
2024-03-07T01:32:14.647Z,8.20
2024-03-07T01:34:41.492Z,8.10
2024-03-07T01:37:17.394Z,8.10
2024-03-07T01:39:44.235Z,8.00
2024-03-07T01:42:11.007Z,8.00
2024-03-07T01:44:38.403Z,8.00
2024-03-07T01:47:05.535Z,8.00
2024-03-07T01:49:32.497Z,7.90
2024-03-07T01:52:00.763Z,8.00
2024-03-07T01:54:29.012Z,8.00
2024-03-07T01:56:56.913Z,8.10
2024-03-07T01:59:25.449Z,8.10
2024-03-07T02:01:53.103Z,8.10
2024-03-07T02:04:20.010Z,8.00
2024-03-07T02:06:46.835Z,8.00
2024-03-07T02:09:15.405Z,8.10
2024-03-07T02:11:42.546Z,8.10
2024-03-07T02:14:09.463Z,8.20
2024-03-07T02:16:36.830Z,8.10
2024-03-07T02:19:04.298Z,8.10
2024-03-07T02:21:31.133Z,8.10
2024-03-07T02:23:58.068Z,8.00
2024-03-07T02:26:25.066Z,7.90
2024-03-07T02:28:51.970Z,7.80
2024-03-07T02:31:20.134Z,7.70
2024-03-07T02:33:47.560Z,7.70
2024-03-07T02:36:14.520Z,7.60
2024-03-07T02:38:41.408Z,7.60
2024-03-07T02:41:08.240Z,7.60
2024-03-07T02:43:39.073Z,7.70
2024-03-07T02:46:05.941Z,7.70
2024-03-07T02:48:32.831Z,7.70
2024-03-07T02:50:59.787Z,7.70
2024-03-07T02:53:26.658Z,7.70
2024-03-07T02:55:53.765Z,7.70
2024-03-07T02:58:20.843Z,7.80
2024-03-07T03:00:50.131Z,7.80
2024-03-07T03:03:17.362Z,7.80
2024-03-07T03:05:44.289Z,7.80
2024-03-07T03:08:11.341Z,7.80
2024-03-07T03:10:38.171Z,7.70
2024-03-07T03:13:05.132Z,7.70
2024-03-07T03:15:32.307Z,7.70
2024-03-07T03:18:03.001Z,7.70
2024-03-07T03:20:39.816Z,7.60
2024-03-07T03:23:15.581Z,7.60
2024-03-07T03:25:49.869Z,7.40
2024-03-07T03:28:18.709Z,7.30
2024-03-07T03:30:46.149Z,7.30
2024-03-07T03:33:13.333Z,7.30
2024-03-07T03:35:41.255Z,7.20
2024-03-07T03:38:09.059Z,7.20
2024-03-07T03:40:36.526Z,7.20
2024-03-07T03:43:03.896Z,7.10
2024-03-07T03:45:33.307Z,7.00
2024-03-07T03:48:00.180Z,6.90
2024-03-07T03:50:27.386Z,6.90
2024-03-07T03:52:54.330Z,6.80
2024-03-07T03:55:21.935Z,6.70
2024-03-07T03:57:50.384Z,6.60
2024-03-07T04:00:18.197Z,6.50
2024-03-07T04:02:49.162Z,6.50
2024-03-07T04:05:18.162Z,6.50
2024-03-07T04:07:45.513Z,6.60
2024-03-07T04:10:13.463Z,6.60
2024-03-07T04:12:42.017Z,6.50
2024-03-07T04:15:18.599Z,6.40
2024-03-07T04:17:48.497Z,6.40
2024-03-07T04:20:19.127Z,6.40
2024-03-07T04:22:47.047Z,6.40
2024-03-07T04:25:13.927Z,6.40
2024-03-07T04:27:43.825Z,6.30
2024-03-07T04:30:11.402Z,6.10
2024-03-07T04:32:39.425Z,6.00
2024-03-07T04:35:08.842Z,5.90
2024-03-07T04:37:37.642Z,5.80
2024-03-07T04:40:18.935Z,5.70
2024-03-07T04:42:50.366Z,5.60
2024-03-07T04:45:18.405Z,5.50
2024-03-07T04:47:46.690Z,5.40
2024-03-07T04:50:14.705Z,5.40
2024-03-07T04:52:41.936Z,5.40
2024-03-07T04:55:10.925Z,5.40
2024-03-07T04:57:42.517Z,5.20
2024-03-07T05:00:18.064Z,5.10
2024-03-07T05:02:48.572Z,5.10
2024-03-07T05:05:16.262Z,5.10
2024-03-07T05:07:43.332Z,5.20
2024-03-07T05:10:10.644Z,5.20
2024-03-07T05:12:40.521Z,5.30
2024-03-07T05:15:10.789Z,5.20
2024-03-07T05:17:39.226Z,5.20
2024-03-07T05:20:11.226Z,5.30
2024-03-07T05:22:45.421Z,5.30
2024-03-07T05:25:12.331Z,5.30
2024-03-07T05:27:39.558Z,5.20
2024-03-07T05:30:10.194Z,5.10
2024-03-07T05:32:37.887Z,5.00
2024-03-07T05:35:05.234Z,4.90
2024-03-07T05:37:33.086Z,4.80
2024-03-07T05:40:01.019Z,4.90
2024-03-07T05:42:28.172Z,4.90
2024-03-07T05:44:55.474Z,5.00
2024-03-07T05:47:23.202Z,4.90
2024-03-07T05:49:50.366Z,4.90
2024-03-07T05:52:17.256Z,4.90
2024-03-07T05:54:45.348Z,4.80
2024-03-07T05:57:13.049Z,4.60
2024-03-07T05:59:40.422Z,4.60
2024-03-07T06:02:07.579Z,4.50
2024-03-07T06:04:35.804Z,4.60
2024-03-07T06:07:02.912Z,4.60
2024-03-07T06:09:29.857Z,4.50
2024-03-07T06:11:56.784Z,4.50
2024-03-07T06:14:25.583Z,4.60
2024-03-07T06:16:53.722Z,4.60
2024-03-07T06:19:20.752Z,4.50
2024-03-07T06:21:47.732Z,4.40
2024-03-07T06:24:16.536Z,4.40
2024-03-07T06:26:47.325Z,4.40
2024-03-07T06:29:19.009Z,4.40
2024-03-07T06:31:51.193Z,4.40
2024-03-07T06:34:18.824Z,4.40
2024-03-07T06:36:45.848Z,4.30
2024-03-07T06:39:13.289Z,4.30
2024-03-07T06:41:41.271Z,4.40
2024-03-07T06:44:10.714Z,4.40
2024-03-07T06:46:37.615Z,4.40
2024-03-07T06:49:06.809Z,4.50
2024-03-07T06:51:34.297Z,4.60
2024-03-07T06:54:01.516Z,4.60
2024-03-07T06:56:28.663Z,4.70
2024-03-07T06:58:55.678Z,4.70
2024-03-07T07:01:23.321Z,4.80
2024-03-07T07:03:50.201Z,5.00
2024-03-07T07:06:17.339Z,5.10
2024-03-07T07:08:46.360Z,5.10
2024-03-07T07:11:14.015Z,5.20
2024-03-07T07:13:43.249Z,5.30
2024-03-07T07:16:10.977Z,5.30
2024-03-07T07:18:38.318Z,5.40
2024-03-07T07:21:07.026Z,5.50
2024-03-07T07:23:34.006Z,5.60
2024-03-07T07:26:00.932Z,5.70
2024-03-07T07:28:28.065Z,5.70
2024-03-07T07:30:54.894Z,5.70
2024-03-07T07:33:21.986Z,5.70
2024-03-07T07:35:48.966Z,5.80
2024-03-07T07:38:16.671Z,5.80
2024-03-07T07:40:44.387Z,5.80
2024-03-07T07:43:19.529Z,5.80
2024-03-07T07:45:52.632Z,5.80
2024-03-07T07:48:20.540Z,6.00
2024-03-07T07:50:49.850Z,6.00
2024-03-07T07:53:16.798Z,6.10
2024-03-07T07:55:43.673Z,6.10
2024-03-07T07:58:10.478Z,6.10
2024-03-07T08:00:38.254Z,6.20
2024-03-07T08:03:10.209Z,6.30
2024-03-07T08:05:39.157Z,6.40
2024-03-07T08:08:08.381Z,6.50
2024-03-07T08:10:37.177Z,6.60
2024-03-07T08:13:11.418Z,6.80
2024-03-07T08:15:38.408Z,6.90
2024-03-07T08:18:10.097Z,7.10
2024-03-07T08:20:38.150Z,7.00
2024-03-07T08:23:05.234Z,7.10
2024-03-07T08:25:32.103Z,7.10
2024-03-07T08:27:59.771Z,7.20
2024-03-07T08:30:29.762Z,7.30
2024-03-07T08:32:58.184Z,7.40
2024-03-07T08:35:26.323Z,7.60
2024-03-07T08:37:55.224Z,7.80
2024-03-07T08:40:33.700Z,7.90
2024-03-07T08:43:01.886Z,8.10
2024-03-07T08:45:30.129Z,8.10
2024-03-07T08:47:59.528Z,8.20
2024-03-07T08:50:28.927Z,8.30
2024-03-07T08:52:56.297Z,8.50
2024-03-07T08:55:27.062Z,8.60
2024-03-07T08:57:54.487Z,8.70
2024-03-07T09:00:30.719Z,8.80
2024-03-07T09:03:00.670Z,8.70
2024-03-07T09:05:29.778Z,8.80
2024-03-07T09:07:57.103Z,9.00
2024-03-07T09:10:26.905Z,8.90
2024-03-07T09:12:55.474Z,9.00
2024-03-07T09:15:24.421Z,9.30
2024-03-07T09:17:52.654Z,9.50
2024-03-07T09:20:21.144Z,9.70
2024-03-07T09:22:50.213Z,9.80
2024-03-07T09:25:19.664Z,9.70
2024-03-07T09:27:46.495Z,9.70
2024-03-07T09:30:16.001Z,9.90
2024-03-07T09:32:44.418Z,9.70
2024-03-07T09:35:15.594Z,9.70
2024-03-07T09:37:44.158Z,10.10
2024-03-07T09:40:12.589Z,10.30
2024-03-07T09:42:49.305Z,10.50
2024-03-07T09:45:19.235Z,10.70
2024-03-07T09:47:49.220Z,10.70
2024-03-07T09:50:20.436Z,10.80
2024-03-07T09:52:52.655Z,11.00
2024-03-07T09:55:20.973Z,11.30
2024-03-07T09:57:48.954Z,11.20
2024-03-07T10:00:27.515Z,11.40
2024-03-07T10:02:59.435Z,11.40
2024-03-07T10:05:28.768Z,11.50
2024-03-07T10:07:55.614Z,11.70
2024-03-07T10:10:23.078Z,12.00
2024-03-07T10:12:54.852Z,12.40
2024-03-07T10:15:22.798Z,12.70
2024-03-07T10:17:49.903Z,12.70
2024-03-07T10:20:23.223Z,12.80
2024-03-07T10:22:50.845Z,12.90
2024-03-07T10:25:25.557Z,12.90
2024-03-07T10:27:53.736Z,12.90
2024-03-07T10:30:24.082Z,12.40
2024-03-07T10:33:02.165Z,12.30
2024-03-07T10:35:31.187Z,12.10
2024-03-07T10:38:08.789Z,12.30
2024-03-07T10:40:42.357Z,12.50
2024-03-07T10:43:16.254Z,12.20
2024-03-07T10:45:48.558Z,12.50
2024-03-07T10:48:29.088Z,12.80
2024-03-07T10:51:02.085Z,13.20
2024-03-07T10:53:54.042Z,13.40
2024-03-07T10:56:59.496Z,13.10
2024-03-07T10:59:31.493Z,13.00
2024-03-07T11:02:28.307Z,13.20
2024-03-07T11:04:57.228Z,13.70
2024-03-07T11:07:24.867Z,14.10
2024-03-07T11:09:53.458Z,13.70
2024-03-07T11:12:25.498Z,13.70
2024-03-07T11:14:53.444Z,14.00
2024-03-07T11:17:23.407Z,14.30
2024-03-07T11:19:51.015Z,14.60
2024-03-07T11:22:32.912Z,14.70
2024-03-07T11:25:09.529Z,14.80
2024-03-07T11:27:40.371Z,15.00
2024-03-07T11:30:09.181Z,15.30
2024-03-07T11:32:38.687Z,15.70
2024-03-07T11:35:09.162Z,16.10
2024-03-07T11:37:50.167Z,16.20
2024-03-07T11:40:27.151Z,15.30
2024-03-07T11:42:55.117Z,14.60
2024-03-07T11:45:33.725Z,14.20
2024-03-07T11:48:08.079Z,13.60
2024-03-07T11:50:38.644Z,14.10
2024-03-07T11:53:07.896Z,14.40
2024-03-07T11:55:42.889Z,14.30
2024-03-07T11:58:22.517Z,14.60
2024-03-07T12:00:55.364Z,15.20
2024-03-07T12:03:23.453Z,15.60
2024-03-07T12:05:52.439Z,16.00
2024-03-07T12:08:24.473Z,16.50
2024-03-07T12:10:56.751Z,16.80
2024-03-07T12:13:26.112Z,17.10
2024-03-07T12:15:53.337Z,17.00
2024-03-07T12:18:21.847Z,16.50
2024-03-07T12:20:55.421Z,16.30
2024-03-07T12:23:27.981Z,16.50
2024-03-07T12:26:06.464Z,16.50
2024-03-07T12:28:39.773Z,16.20
2024-03-07T12:31:16.727Z,16.10
2024-03-07T12:33:48.150Z,16.20
2024-03-07T12:36:15.385Z,16.00
2024-03-07T12:38:43.212Z,15.70
2024-03-07T12:41:18.335Z,16.10
2024-03-07T12:43:49.686Z,16.60
2024-03-07T12:46:18.833Z,16.90
2024-03-07T12:48:46.943Z,17.00
2024-03-07T12:51:18.848Z,16.90
2024-03-07T12:53:47.724Z,17.20
2024-03-07T12:56:19.427Z,17.60
2024-03-07T12:58:47.873Z,17.50
2024-03-07T13:01:15.711Z,18.00
2024-03-07T13:03:46.170Z,18.10
2024-03-07T13:06:13.545Z,18.30
2024-03-07T13:08:41.507Z,18.30
2024-03-07T13:11:11.358Z,18.70
2024-03-07T13:13:38.630Z,19.10
2024-03-07T13:16:05.944Z,18.70
2024-03-07T13:18:35.027Z,18.90
2024-03-07T13:21:05.957Z,18.90
2024-03-07T13:23:34.306Z,18.40
2024-03-07T13:26:03.014Z,18.60
2024-03-07T13:28:30.837Z,18.50
2024-03-07T13:30:58.202Z,18.20
2024-03-07T13:33:25.912Z,18.10
2024-03-07T13:35:53.911Z,18.10
2024-03-07T13:38:21.493Z,18.10
2024-03-07T13:40:50.696Z,18.40
2024-03-07T13:43:19.198Z,18.50
2024-03-07T13:45:46.058Z,18.80
2024-03-07T13:48:18.000Z,19.00
2024-03-07T13:50:57.878Z,19.10
2024-03-07T13:53:29.510Z,19.20
2024-03-07T13:56:11.863Z,19.40
2024-03-07T13:58:46.854Z,18.70
2024-03-07T14:01:32.743Z,18.80
2024-03-07T14:04:36.800Z,18.60
2024-03-07T14:07:25.099Z,19.10
2024-03-07T14:10:29.595Z,19.80
2024-03-07T14:13:21.216Z,20.10
2024-03-07T14:16:08.457Z,20.00
2024-03-07T14:18:44.575Z,19.20
2024-03-07T14:21:38.659Z,19.20
2024-03-07T14:24:30.308Z,19.80
2024-03-07T14:27:28.364Z,20.20
2024-03-07T14:30:23.800Z,21.00
2024-03-07T14:50:34.031Z,22.40
2024-03-07T14:53:01.389Z,22.20
2024-03-07T14:55:28.267Z,22.30
2024-03-07T14:57:55.226Z,22.10
2024-03-07T15:00:33.966Z,22.20
2024-03-07T15:03:03.676Z,21.40
2024-03-07T15:05:31.261Z,21.10
2024-03-07T15:07:58.136Z,21.40
2024-03-07T15:10:32.845Z,20.90
2024-03-07T15:13:00.951Z,20.80
2024-03-07T15:15:32.353Z,20.20
2024-03-07T15:18:00.318Z,19.60
2024-03-07T15:20:30.882Z,19.20
2024-03-07T15:23:02.085Z,19.20
2024-03-07T15:25:29.588Z,19.40
2024-03-07T15:27:58.269Z,19.40
2024-03-07T15:30:33.019Z,19.30
2024-03-07T15:33:01.082Z,19.20
2024-03-07T15:35:28.646Z,19.80
2024-03-07T15:37:55.483Z,20.30
2024-03-07T15:40:22.659Z,20.00
2024-03-07T15:42:54.510Z,19.70
2024-03-07T15:45:23.312Z,20.00
2024-03-07T15:47:50.767Z,19.40
2024-03-07T15:50:21.075Z,18.50
2024-03-07T15:52:52.372Z,18.70
2024-03-07T15:55:19.571Z,19.30
2024-03-07T15:57:51.407Z,19.50
2024-03-07T16:00:24.866Z,19.60
2024-03-07T16:02:58.009Z,19.50
2024-03-07T16:05:27.064Z,18.90
2024-03-07T16:07:54.958Z,18.30
2024-03-07T16:10:25.962Z,18.30
2024-03-07T16:12:53.285Z,18.00
2024-03-07T16:15:35.591Z,17.80
2024-03-07T16:18:10.678Z,17.50
2024-03-07T16:20:38.966Z,17.40
2024-03-07T16:23:06.520Z,16.80
2024-03-07T16:25:38.932Z,16.40
2024-03-07T16:28:08.018Z,16.10
2024-03-07T16:30:36.604Z,15.80
2024-03-07T16:33:05.503Z,15.60
2024-03-07T16:35:33.057Z,15.60
2024-03-07T16:38:00.551Z,15.40
2024-03-07T16:40:29.662Z,15.40
2024-03-07T16:43:02.378Z,15.30
2024-03-07T16:45:32.297Z,15.20
2024-03-07T16:48:01.946Z,15.20
2024-03-07T16:50:31.478Z,15.00
2024-03-07T16:53:00.649Z,14.90
2024-03-07T16:55:27.377Z,14.80
2024-03-07T16:58:09.183Z,14.80
2024-03-07T17:00:41.267Z,14.70
2024-03-07T17:03:11.390Z,14.60
2024-03-07T17:05:41.132Z,14.60
2024-03-07T17:08:12.620Z,14.50
2024-03-07T17:10:40.881Z,14.40
2024-03-07T17:13:13.261Z,14.30
2024-03-07T17:15:40.891Z,14.20
2024-03-07T17:18:11.295Z,14.10
2024-03-07T17:20:40.354Z,14.00
2024-03-07T17:23:07.442Z,13.90
2024-03-07T17:25:34.854Z,13.80
2024-03-07T17:28:01.914Z,13.70
2024-03-07T17:30:36.548Z,13.60
2024-03-07T17:33:07.046Z,13.60
2024-03-07T17:35:35.808Z,13.60
2024-03-07T17:38:03.101Z,13.50
2024-03-07T17:40:33.761Z,13.40
2024-03-07T17:43:04.695Z,13.40
2024-03-07T17:45:37.486Z,13.30
2024-03-07T17:48:07.488Z,13.30
2024-03-07T17:50:38.899Z,13.20
2024-03-07T17:53:11.554Z,13.20
2024-03-07T17:55:43.477Z,13.10
2024-03-07T17:58:12.141Z,13.00
2024-03-07T18:00:43.312Z,13.00
2024-03-07T18:03:12.839Z,12.90
2024-03-07T18:05:52.469Z,12.90
2024-03-07T18:08:35.426Z,12.80
2024-03-07T18:11:16.398Z,12.80
2024-03-07T18:13:44.415Z,12.80
2024-03-07T18:16:13.642Z,12.70
2024-03-07T18:18:44.547Z,12.60
2024-03-07T18:21:13.062Z,12.60
2024-03-07T18:23:40.152Z,12.60
2024-03-07T18:26:07.134Z,12.50
2024-03-07T18:28:37.349Z,12.40
2024-03-07T18:31:13.500Z,12.40
2024-03-07T18:33:45.473Z,12.30
2024-03-07T18:36:15.371Z,12.30
2024-03-07T18:38:42.628Z,12.30
2024-03-07T18:41:14.288Z,12.30
2024-03-07T18:43:42.123Z,12.20
2024-03-07T18:46:13.591Z,12.10
2024-03-07T18:48:40.610Z,12.10
2024-03-07T18:51:09.345Z,12.10
2024-03-07T18:53:37.644Z,12.10
2024-03-07T19:05:29.888Z,11.90
2024-03-07T19:07:59.473Z,11.80
2024-03-07T19:10:32.541Z,11.80
2024-03-07T19:13:01.980Z,11.70
2024-03-07T19:15:31.133Z,11.60
2024-03-07T19:17:58.106Z,11.40
2024-03-07T19:20:24.989Z,11.20
2024-03-07T19:22:56.362Z,11.20
2024-03-07T19:25:24.968Z,11.10
2024-03-07T19:27:53.943Z,11.10
2024-03-07T19:32:53.433Z,10.90
2024-03-07T19:35:20.546Z,10.80
2024-03-07T19:37:52.589Z,10.70
2024-03-07T19:40:22.413Z,10.70
2024-03-07T19:42:53.763Z,10.60
2024-03-07T19:45:22.901Z,10.60
2024-03-07T19:47:50.310Z,10.60
2024-03-07T19:50:17.499Z,10.50
2024-03-07T19:52:50.817Z,10.50
2024-03-07T19:55:21.229Z,10.60
2024-03-07T19:57:49.831Z,10.50
2024-03-07T20:00:17.867Z,10.40
2024-03-07T20:02:47.159Z,10.40
2024-03-07T20:05:20.701Z,10.30
2024-03-07T20:07:49.245Z,10.30
2024-03-07T20:10:16.832Z,10.40
2024-03-07T20:12:44.777Z,10.30
2024-03-07T20:15:12.660Z,10.20
2024-03-07T20:17:46.896Z,10.20
2024-03-07T20:20:25.078Z,10.20
2024-03-07T20:22:57.742Z,10.10
2024-03-07T20:25:29.033Z,10.00
2024-03-07T20:27:58.924Z,10.10
2024-03-07T20:30:33.483Z,10.10
2024-03-07T20:33:01.123Z,10.10
2024-03-07T20:35:28.376Z,10.00
2024-03-07T20:37:56.137Z,9.90
2024-03-07T20:40:34.448Z,9.80
2024-03-07T20:43:04.335Z,9.80
2024-03-07T20:45:31.495Z,9.80
2024-03-07T20:48:02.632Z,9.70
2024-03-07T20:50:30.374Z,9.60
2024-03-07T20:52:59.961Z,9.60
2024-03-07T20:55:32.062Z,9.60
2024-03-07T20:58:01.207Z,9.60
2024-03-07T21:00:35.443Z,9.70
2024-03-07T21:03:07.448Z,9.60
2024-03-07T21:05:39.964Z,9.50
2024-03-07T21:08:25.643Z,9.50
2024-03-07T21:10:54.677Z,9.40
2024-03-07T21:13:23.281Z,9.40
2024-03-07T21:15:50.292Z,9.40
2024-03-07T21:18:20.716Z,9.30
2024-03-07T21:20:52.969Z,9.20
2024-03-07T21:23:20.244Z,9.20
2024-03-07T21:25:49.598Z,9.20
2024-03-07T21:28:22.050Z,9.10
2024-03-07T21:30:49.261Z,9.10
2024-03-07T21:33:19.408Z,9.10
2024-03-07T21:35:46.492Z,9.10
2024-03-07T21:38:16.203Z,9.10
2024-03-07T21:40:47.071Z,9.20
2024-03-07T21:43:15.116Z,9.20
2024-03-07T21:45:41.979Z,9.20
2024-03-07T21:48:11.212Z,9.30
2024-03-07T21:50:38.603Z,9.30
2024-03-07T21:53:07.329Z,9.20
2024-03-07T21:55:35.887Z,9.10
2024-03-07T21:58:03.188Z,9.00
2024-03-07T22:00:32.740Z,9.00
2024-03-07T22:03:02.881Z,9.00
2024-03-07T22:05:32.058Z,9.00
2024-03-07T22:08:01.015Z,8.90
2024-03-07T22:10:49.225Z,8.90
2024-03-07T22:13:16.442Z,9.10
2024-03-07T22:15:44.166Z,9.00
2024-03-07T22:18:11.636Z,9.00
2024-03-07T22:20:38.745Z,8.90
2024-03-07T22:23:06.006Z,8.80
2024-03-07T22:25:33.004Z,8.70
2024-03-07T22:28:00.524Z,8.70
2024-03-07T22:30:27.508Z,8.60
2024-03-07T22:32:55.285Z,8.60
2024-03-07T22:35:22.683Z,8.50
2024-03-07T22:37:52.365Z,8.50
2024-03-07T22:40:24.730Z,8.60
2024-03-07T22:42:52.765Z,8.50
2024-03-07T22:45:20.023Z,8.60
2024-03-07T22:47:47.744Z,8.60
2024-03-07T22:50:26.374Z,8.60
2024-03-07T22:52:57.579Z,8.60
2024-03-07T22:55:24.714Z,8.60
2024-03-07T22:57:51.984Z,8.50
2024-03-07T23:00:26.386Z,8.50
2024-03-07T23:02:54.051Z,8.50
2024-03-07T23:05:23.946Z,8.40
2024-03-07T23:07:51.516Z,8.50
2024-03-07T23:10:20.810Z,8.50
2024-03-07T23:12:51.528Z,8.50
2024-03-07T23:15:18.695Z,8.50
2024-03-07T23:17:46.438Z,8.60
2024-03-07T23:20:23.707Z,8.60
2024-03-07T23:22:52.193Z,8.40
2024-03-07T23:25:20.328Z,8.40
2024-03-07T23:27:51.285Z,8.40
2024-03-07T23:30:18.850Z,8.40
2024-03-07T23:32:51.217Z,8.50
2024-03-07T23:35:19.127Z,8.60
2024-03-07T23:37:46.517Z,8.60
2024-03-07T23:40:16.891Z,8.50
2024-03-07T23:42:46.115Z,8.50
2024-03-07T23:45:18.079Z,8.50
2024-03-07T23:47:47.539Z,8.40
2024-03-07T23:50:14.486Z,8.30
2024-03-07T23:52:42.805Z,8.20
2024-03-07T23:55:14.519Z,8.20
2024-03-07T23:57:43.536Z,8.10
